sensor_id;sensor_type;location;lat;lon;timestamp;pressure;altitude;pressure_sealevel;temperature;humidity
70370;BME280;57790;51.356;-2.906;2022-09-09T00:00:11;100464.91;;;18.14;75.43
70370;BME280;57790;51.356;-2.906;2022-09-09T00:03:16;100464.91;;;18.14;76.09
70370;BME280;57790;51.356;-2.906;2022-09-09T00:06:32;100477.72;;;18.12;75.50
70370;BME280;57790;51.356;-2.906;2022-09-09T00:09:44;100474.66;;;18.09;75.42
70370;BME280;57790;51.356;-2.906;2022-09-09T00:12:51;100476.31;;;18.10;75.32
70370;BME280;57790;51.356;-2.906;2022-09-09T00:19:06;100489.31;;;18.06;75.30
70370;BME280;57790;51.356;-2.906;2022-09-09T00:22:15;100491.38;;;18.04;75.58
70370;BME280;57790;51.356;-2.906;2022-09-09T00:25:28;100501.28;;;18.04;75.34
70370;BME280;57790;51.356;-2.906;2022-09-09T00:28:31;100502.50;;;18.08;75.53
70370;BME280;57790;51.356;-2.906;2022-09-09T00:31:34;100499.44;;;18.04;75.47
70370;BME280;57790;51.356;-2.906;2022-09-09T00:34:47;100494.88;;;18.05;75.49
70370;BME280;57790;51.356;-2.906;2022-09-09T00:37:50;100487.88;;;18.04;75.76
70370;BME280;57790;51.356;-2.906;2022-09-09T00:40:58;100494.66;;;18.06;75.55
70370;BME280;57790;51.356;-2.906;2022-09-09T00:57:25;100501.06;;;18.05;75.57
70370;BME280;57790;51.356;-2.906;2022-09-09T01:00:43;100509.94;;;18.06;75.49
70370;BME280;57790;51.356;-2.906;2022-09-09T01:03:54;100509.94;;;18.06;75.98
70370;BME280;57790;51.356;-2.906;2022-09-09T01:07:03;100502.13;;;18.04;75.86
70370;BME280;57790;51.356;-2.906;2022-09-09T01:10:24;100500.69;;;18.02;75.66
70370;BME280;57790;51.356;-2.906;2022-09-09T01:13:29;100505.25;;;18.01;75.64
70370;BME280;57790;51.356;-2.906;2022-09-09T01:16:31;100498.25;;;18.00;76.00
70370;BME280;57790;51.356;-2.906;2022-09-09T01:20:04;100508.16;;;18.00;75.82
70370;BME280;57790;51.356;-2.906;2022-09-09T01:23:20;100507.31;;;17.99;76.15
70370;BME280;57790;51.356;-2.906;2022-09-09T01:26:33;100511.03;;;17.98;75.91
70370;BME280;57790;51.356;-2.906;2022-09-09T01:29:35;100522.81;;;17.97;76.00
70370;BME280;57790;51.356;-2.906;2022-09-09T01:32:40;100518.88;;;18.00;75.76
70370;BME280;57790;51.356;-2.906;2022-09-09T01:39:00;100519.69;;;18.00;76.19
70370;BME280;57790;51.356;-2.906;2022-09-09T01:42:02;100525.06;;;18.00;76.07
70370;BME280;57790;51.356;-2.906;2022-09-09T01:45:05;100524.03;;;18.01;76.25
70370;BME280;57790;51.356;-2.906;2022-09-09T01:48:06;100533.94;;;18.01;75.97
70370;BME280;57790;51.356;-2.906;2022-09-09T01:51:08;100528.56;;;18.01;76.19
70370;BME280;57790;51.356;-2.906;2022-09-09T01:54:10;100534.75;;;18.01;76.13
70370;BME280;57790;51.356;-2.906;2022-09-09T01:57:30;100542.81;;;18.01;76.39
70370;BME280;57790;51.356;-2.906;2022-09-09T02:00:35;100543.03;;;18.00;76.28
70370;BME280;57790;51.356;-2.906;2022-09-09T02:03:44;100554.56;;;18.00;76.25
70370;BME280;57790;51.356;-2.906;2022-09-09T02:06:48;100544.66;;;18.01;76.15
70370;BME280;57790;51.356;-2.906;2022-09-09T02:10:04;100553.53;;;18.01;76.07
70370;BME280;57790;51.356;-2.906;2022-09-09T02:13:14;100556.22;;;18.01;76.19
70370;BME280;57790;51.356;-2.906;2022-09-09T02:22:25;100560.97;;;17.99;75.93
70370;BME280;57790;51.356;-2.906;2022-09-09T02:25:28;100555.00;;;17.97;76.34
70370;BME280;57790;51.356;-2.906;2022-09-09T02:28:33;100553.75;;;18.00;76.16
70370;BME280;57790;51.356;-2.906;2022-09-09T02:31:35;100550.84;;;18.01;76.02
70370;BME280;57790;51.356;-2.906;2022-09-09T02:34:40;100563.44;;;18.01;76.09
70370;BME280;57790;51.356;-2.906;2022-09-09T02:37:44;100564.25;;;18.01;75.88
70370;BME280;57790;51.356;-2.906;2022-09-09T02:40:49;100561.81;;;18.00;76.18
70370;BME280;57790;51.356;-2.906;2022-09-09T02:43:50;100566.94;;;18.01;75.83
70370;BME280;57790;51.356;-2.906;2022-09-09T02:50:31;100578.72;;;18.00;75.99
70370;BME280;57790;51.356;-2.906;2022-09-09T02:53:44;100581.84;;;17.97;75.75
70370;BME280;57790;51.356;-2.906;2022-09-09T02:56:52;100586.97;;;17.99;75.86
70370;BME280;57790;51.356;-2.906;2022-09-09T02:59:57;100583.09;;;17.95;75.95
70370;BME280;57790;51.356;-2.906;2022-09-09T03:02:58;100584.31;;;17.92;76.14
70370;BME280;57790;51.356;-2.906;2022-09-09T03:05:58;100599.19;;;17.95;76.00
70370;BME280;57790;51.356;-2.906;2022-09-09T03:08:59;100592.16;;;17.94;75.80
70370;BME280;57790;51.356;-2.906;2022-09-09T03:12:02;100598.56;;;17.93;75.94
70370;BME280;57790;51.356;-2.906;2022-09-09T03:15:05;100599.38;;;17.93;76.01
70370;BME280;57790;51.356;-2.906;2022-09-09T03:18:06;100599.38;;;17.93;75.98
70370;BME280;57790;51.356;-2.906;2022-09-09T03:21:07;100598.78;;;17.91;75.80
70370;BME280;57790;51.356;-2.906;2022-09-09T03:24:07;100601.44;;;17.91;76.06
70370;BME280;57790;51.356;-2.906;2022-09-09T03:27:08;100598.78;;;17.91;76.04
70370;BME280;57790;51.356;-2.906;2022-09-09T03:30:08;100600.84;;;17.89;75.73
70370;BME280;57790;51.356;-2.906;2022-09-09T03:33:09;100612.63;;;17.88;75.19
70370;BME280;57790;51.356;-2.906;2022-09-09T03:36:09;100607.03;;;17.90;75.38
70370;BME280;57790;51.356;-2.906;2022-09-09T03:39:10;100619.00;;;17.87;74.81
70370;BME280;57790;51.356;-2.906;2022-09-09T03:42:14;100625.84;;;17.83;74.58
70370;BME280;57790;51.356;-2.906;2022-09-09T03:45:14;100621.53;;;17.82;74.65
70370;BME280;57790;51.356;-2.906;2022-09-09T03:48:16;100622.34;;;17.76;73.91
70370;BME280;57790;51.356;-2.906;2022-09-09T03:51:17;100627.50;;;17.77;74.19
70370;BME280;57790;51.356;-2.906;2022-09-09T03:54:18;100624.66;;;17.72;74.13
70370;BME280;57790;51.356;-2.906;2022-09-09T03:57:20;100636.19;;;17.73;74.06
70370;BME280;57790;51.356;-2.906;2022-09-09T04:00:20;100630.22;;;17.71;73.93
70370;BME280;57790;51.356;-2.906;2022-09-09T04:03:21;100630.63;;;17.74;74.01
70370;BME280;57790;51.356;-2.906;2022-09-09T04:06:24;100632.69;;;17.72;73.43
70370;BME280;57790;51.356;-2.906;2022-09-09T04:09:26;100629.41;;;17.70;73.53
70370;BME280;57790;51.356;-2.906;2022-09-09T04:12:26;100633.50;;;17.73;73.52
70370;BME280;57790;51.356;-2.906;2022-09-09T04:15:26;100629.63;;;17.69;73.08
70370;BME280;57790;51.356;-2.906;2022-09-09T04:18:28;100641.56;;;17.66;73.16
70370;BME280;57790;51.356;-2.906;2022-09-09T04:21:28;100635.16;;;17.61;73.32
70370;BME280;57790;51.356;-2.906;2022-09-09T04:24:29;100652.91;;;17.62;73.45
70370;BME280;57790;51.356;-2.906;2022-09-09T04:27:29;100641.34;;;17.61;73.62
70370;BME280;57790;51.356;-2.906;2022-09-09T04:30:30;100639.91;;;17.59;74.05
70370;BME280;57790;51.356;-2.906;2022-09-09T04:33:30;100640.75;;;17.59;73.42
70370;BME280;57790;51.356;-2.906;2022-09-09T04:36:32;100654.16;;;17.59;73.54
70370;BME280;57790;51.356;-2.906;2022-09-09T04:39:33;100656.84;;;17.59;73.36
70370;BME280;57790;51.356;-2.906;2022-09-09T04:42:36;100649.00;;;17.58;73.55
70370;BME280;57790;51.356;-2.906;2022-09-09T04:45:37;100638.28;;;17.58;73.76
70370;BME280;57790;51.356;-2.906;2022-09-09T04:48:37;100656.22;;;17.57;73.61
70370;BME280;57790;51.356;-2.906;2022-09-09T04:51:38;100645.94;;;17.54;73.70
70370;BME280;57790;51.356;-2.906;2022-09-09T04:54:39;100651.06;;;17.55;73.34
70370;BME280;57790;51.356;-2.906;2022-09-09T04:57:40;100645.06;;;17.60;73.63
70370;BME280;57790;51.356;-2.906;2022-09-09T05:00:41;100637.66;;;17.55;73.44
70370;BME280;57790;51.356;-2.906;2022-09-09T05:03:42;100647.78;;;17.53;73.58
70370;BME280;57790;51.356;-2.906;2022-09-09T05:06:45;100661.59;;;17.57;73.15
70370;BME280;57790;51.356;-2.906;2022-09-09T05:09:46;100658.69;;;17.59;73.63
70370;BME280;57790;51.356;-2.906;2022-09-09T05:12:54;100663.22;;;17.58;73.49
70370;BME280;57790;51.356;-2.906;2022-09-09T05:15:55;100668.81;;;17.57;73.36
70370;BME280;57790;51.356;-2.906;2022-09-09T05:18:55;100667.97;;;17.56;73.13
70370;BME280;57790;51.356;-2.906;2022-09-09T05:21:56;100670.66;;;17.56;73.15
70370;BME280;57790;51.356;-2.906;2022-09-09T05:24:56;100677.28;;;17.53;73.16
70370;BME280;57790;51.356;-2.906;2022-09-09T05:27:58;100673.75;;;17.53;73.30
70370;BME280;57790;51.356;-2.906;2022-09-09T05:31:01;100688.38;;;17.57;73.22
70370;BME280;57790;51.356;-2.906;2022-09-09T05:34:04;100688.38;;;17.57;73.29
70370;BME280;57790;51.356;-2.906;2022-09-09T05:37:05;100690.88;;;17.52;73.44
70370;BME280;57790;51.356;-2.906;2022-09-09T05:40:07;100698.72;;;17.53;73.75
70370;BME280;57790;51.356;-2.906;2022-09-09T05:43:08;100702.66;;;17.51;73.74
70370;BME280;57790;51.356;-2.906;2022-09-09T05:46:11;100697.28;;;17.51;73.79
70370;BME280;57790;51.356;-2.906;2022-09-09T05:49:12;100709.44;;;17.53;73.45
70370;BME280;57790;51.356;-2.906;2022-09-09T05:52:12;100704.28;;;17.52;73.43
70370;BME280;57790;51.356;-2.906;2022-09-09T05:55:12;100706.97;;;17.52;73.16
70370;BME280;57790;51.356;-2.906;2022-09-09T05:58:13;100712.72;;;17.55;73.21
70370;BME280;57790;51.356;-2.906;2022-09-09T06:01:29;100723.84;;;17.59;73.21
70370;BME280;57790;51.356;-2.906;2022-09-09T06:04:30;100726.53;;;17.66;72.96
70370;BME280;57790;51.356;-2.906;2022-09-09T06:07:30;100720.53;;;17.64;72.45
70370;BME280;57790;51.356;-2.906;2022-09-09T06:10:31;100731.47;;;17.62;72.36
70370;BME280;57790;51.356;-2.906;2022-09-09T06:13:31;100734.75;;;17.64;72.33
70370;BME280;57790;51.356;-2.906;2022-09-09T06:16:32;100742.84;;;17.71;72.36
70370;BME280;57790;51.356;-2.906;2022-09-09T06:19:33;100749.66;;;17.73;72.71
70370;BME280;57790;51.356;-2.906;2022-09-09T06:22:33;100737.66;;;17.76;72.22
70370;BME280;57790;51.356;-2.906;2022-09-09T06:25:34;100749.44;;;17.75;72.02
70370;BME280;57790;51.356;-2.906;2022-09-09T06:28:35;100753.75;;;17.76;72.42
70370;BME280;57790;51.356;-2.906;2022-09-09T06:31:37;100753.53;;;17.77;71.80
70370;BME280;57790;51.356;-2.906;2022-09-09T06:34:37;100747.78;;;17.80;71.53
70370;BME280;57790;51.356;-2.906;2022-09-09T06:37:38;100755.81;;;17.87;72.44
70370;BME280;57790;51.356;-2.906;2022-09-09T06:40:38;100758.06;;;17.90;72.29
70370;BME280;57790;51.356;-2.906;2022-09-09T06:43:40;100754.13;;;17.93;71.88
70370;BME280;57790;51.356;-2.906;2022-09-09T06:46:40;100762.78;;;18.01;71.87
70370;BME280;57790;51.356;-2.906;2022-09-09T06:49:41;100764.81;;;18.06;72.17
70370;BME280;57790;51.356;-2.906;2022-09-09T06:52:46;100770.19;;;18.12;71.54
70370;BME280;57790;51.356;-2.906;2022-09-09T06:55:47;100768.97;;;18.08;70.48
70370;BME280;57790;51.356;-2.906;2022-09-09T06:58:49;100772.03;;;18.19;70.72
70370;BME280;57790;51.356;-2.906;2022-09-09T07:01:53;100768.91;;;18.22;70.67
70370;BME280;57790;51.356;-2.906;2022-09-09T07:04:54;100777.78;;;18.22;70.48
70370;BME280;57790;51.356;-2.906;2022-09-09T07:07:55;100772.63;;;18.21;70.19
70370;BME280;57790;51.356;-2.906;2022-09-09T07:11:02;100772.84;;;18.26;69.80
70370;BME280;57790;51.356;-2.906;2022-09-09T07:14:02;100773.66;;;18.26;69.81
70370;BME280;57790;51.356;-2.906;2022-09-09T07:17:03;100779.03;;;18.20;69.78
70370;BME280;57790;51.356;-2.906;2022-09-09T07:20:04;100769.72;;;18.22;69.63
70370;BME280;57790;51.356;-2.906;2022-09-09T07:23:04;100778.19;;;18.26;69.06
70370;BME280;57790;51.356;-2.906;2022-09-09T07:26:13;100773.66;;;18.26;68.96
70370;BME280;57790;51.356;-2.906;2022-09-09T07:29:14;100773.63;;;18.33;69.16
70370;BME280;57790;51.356;-2.906;2022-09-09T07:32:15;100783.09;;;18.35;69.25
70370;BME280;57790;51.356;-2.906;2022-09-09T07:35:15;100788.91;;;18.39;69.43
70370;BME280;57790;51.356;-2.906;2022-09-09T07:38:16;100785.56;;;18.37;69.27
70370;BME280;57790;51.356;-2.906;2022-09-09T07:41:25;100793.63;;;18.37;69.05
70370;BME280;57790;51.356;-2.906;2022-09-09T07:44:25;100793.41;;;18.45;69.30
70370;BME280;57790;51.356;-2.906;2022-09-09T07:47:27;100789.00;;;18.57;69.42
70370;BME280;57790;51.356;-2.906;2022-09-09T07:50:27;100788.97;;;18.70;69.19
70370;BME280;57790;51.356;-2.906;2022-09-09T07:53:28;100793.84;;;18.87;68.13
70370;BME280;57790;51.356;-2.906;2022-09-09T07:56:29;100793.94;;;19.05;67.77
70370;BME280;57790;51.356;-2.906;2022-09-09T07:59:30;100791.59;;;19.15;67.25
70370;BME280;57790;51.356;-2.906;2022-09-09T08:02:30;100795.94;;;19.16;66.45
70370;BME280;57790;51.356;-2.906;2022-09-09T08:05:31;100800.28;;;19.17;66.62
70370;BME280;57790;51.356;-2.906;2022-09-09T08:08:31;100803.84;;;19.11;66.28
70370;BME280;57790;51.356;-2.906;2022-09-09T08:11:32;100804.47;;;19.07;66.13
70370;BME280;57790;51.356;-2.906;2022-09-09T08:14:33;100814.06;;;18.96;66.83
70370;BME280;57790;51.356;-2.906;2022-09-09T08:17:34;100805.03;;;18.84;66.79
70370;BME280;57790;51.356;-2.906;2022-09-09T08:20:36;100814.53;;;18.80;66.33
70370;BME280;57790;51.356;-2.906;2022-09-09T08:23:37;100823.19;;;18.88;66.46
70370;BME280;57790;51.356;-2.906;2022-09-09T08:26:42;100823.56;;;18.92;66.48
70370;BME280;57790;51.356;-2.906;2022-09-09T08:29:43;100824.41;;;18.92;66.44
70370;BME280;57790;51.356;-2.906;2022-09-09T08:32:44;100821.72;;;18.92;66.36
70370;BME280;57790;51.356;-2.906;2022-09-09T08:35:51;100830.19;;;18.89;66.63
70370;BME280;57790;51.356;-2.906;2022-09-09T08:38:54;100827.13;;;18.86;66.65
70370;BME280;57790;51.356;-2.906;2022-09-09T08:45:14;100830.84;;;18.85;66.50
70370;BME280;57790;51.356;-2.906;2022-09-09T08:51:19;100856.22;;;18.95;66.97
70370;BME280;57790;51.356;-2.906;2022-09-09T08:54:20;100855.56;;;19.00;67.02
70370;BME280;57790;51.356;-2.906;2022-09-09T08:57:26;100859.69;;;19.02;66.94
70370;BME280;57790;51.356;-2.906;2022-09-09T09:00:36;100871.25;;;19.10;66.80
70370;BME280;57790;51.356;-2.906;2022-09-09T09:03:44;100875.28;;;19.25;66.50
70370;BME280;57790;51.356;-2.906;2022-09-09T09:06:50;100883.91;;;19.34;66.46
70370;BME280;57790;51.356;-2.906;2022-09-09T09:13:01;100883.53;;;19.24;66.19
70370;BME280;57790;51.356;-2.906;2022-09-09T09:16:17;100884.25;;;19.13;66.58
70370;BME280;57790;51.356;-2.906;2022-09-09T09:19:19;100899.13;;;19.09;67.02
70370;BME280;57790;51.356;-2.906;2022-09-09T09:25:39;100906.31;;;19.21;66.74
70370;BME280;57790;51.356;-2.906;2022-09-09T09:28:41;100905.16;;;19.42;66.09
70370;BME280;57790;51.356;-2.906;2022-09-09T09:31:45;100902.34;;;19.69;64.80
70370;BME280;57790;51.356;-2.906;2022-09-09T09:34:58;100909.41;;;19.63;64.81
70370;BME280;57790;51.356;-2.906;2022-09-09T09:37:58;100909.44;;;19.50;65.51
70370;BME280;57790;51.356;-2.906;2022-09-09T09:41:01;100915.56;;;19.32;65.81
70370;BME280;57790;51.356;-2.906;2022-09-09T09:44:03;100921.97;;;19.31;66.50
70370;BME280;57790;51.356;-2.906;2022-09-09T09:50:17;100934.22;;;19.27;66.70
70370;BME280;57790;51.356;-2.906;2022-09-09T09:53:27;100935.84;;;19.28;66.93
70370;BME280;57790;51.356;-2.906;2022-09-09T09:56:28;100936.69;;;19.28;66.96
70370;BME280;57790;51.356;-2.906;2022-09-09T10:02:38;100936.34;;;19.50;66.71
70370;BME280;57790;51.356;-2.906;2022-09-09T10:05:45;100937.16;;;19.50;66.79
70370;BME280;57790;51.356;-2.906;2022-09-09T10:08:46;100946.88;;;19.51;66.96
70370;BME280;57790;51.356;-2.906;2022-09-09T10:16:05;100947.09;;;19.88;66.82
70370;BME280;57790;51.356;-2.906;2022-09-09T10:19:37;100954.28;;;19.69;66.91
70370;BME280;57790;51.356;-2.906;2022-09-09T10:22:52;100960.53;;;19.50;67.37
70370;BME280;57790;51.356;-2.906;2022-09-09T10:26:14;100960.63;;;19.37;67.77
70370;BME280;57790;51.356;-2.906;2022-09-09T10:29:23;100966.44;;;19.33;68.57
70370;BME280;57790;51.356;-2.906;2022-09-09T10:38:47;100967.56;;;19.51;67.77
70370;BME280;57790;51.356;-2.906;2022-09-09T10:45:46;100964.66;;;19.90;66.98
70370;BME280;57790;51.356;-2.906;2022-09-09T10:48:53;100978.19;;;20.09;66.66
70370;BME280;57790;51.356;-2.906;2022-09-09T10:55:13;100965.00;;;20.01;66.69
70370;BME280;57790;51.356;-2.906;2022-09-09T10:58:21;100968.34;;;20.21;66.32
70370;BME280;57790;51.356;-2.906;2022-09-09T11:01:26;100975.66;;;20.64;65.35
70370;BME280;57790;51.356;-2.906;2022-09-09T11:04:42;100968.16;;;20.66;64.98
70370;BME280;57790;51.356;-2.906;2022-09-09T11:07:54;100968.47;;;20.58;65.28
70370;BME280;57790;51.356;-2.906;2022-09-09T11:11:03;100966.66;;;20.52;65.87
70370;BME280;57790;51.356;-2.906;2022-09-09T11:17:42;100968.38;;;20.39;66.88
70370;BME280;57790;51.356;-2.906;2022-09-09T11:20:58;100976.16;;;20.54;65.79
70370;BME280;57790;51.356;-2.906;2022-09-09T11:24:13;100985.94;;;20.73;65.81
70370;BME280;57790;51.356;-2.906;2022-09-09T11:27:21;100978.91;;;20.72;65.46
70370;BME280;57790;51.356;-2.906;2022-09-09T11:41:01;100973.91;;;20.51;66.75
70370;BME280;57790;51.356;-2.906;2022-09-09T11:44:11;100982.81;;;20.52;66.76
70370;BME280;57790;51.356;-2.906;2022-09-09T11:47:29;100977.66;;;20.50;66.26
70370;BME280;57790;51.356;-2.906;2022-09-09T11:50:34;100985.50;;;20.27;67.12
70370;BME280;57790;51.356;-2.906;2022-09-09T11:53:48;100982.91;;;20.38;67.91
70370;BME280;57790;51.356;-2.906;2022-09-09T11:56:50;100985.00;;;20.43;67.88
70370;BME280;57790;51.356;-2.906;2022-09-09T11:59:51;100988.09;;;20.40;68.93
70370;BME280;57790;51.356;-2.906;2022-09-09T12:02:55;100977.84;;;20.73;67.80
70370;BME280;57790;51.356;-2.906;2022-09-09T12:05:59;100983.38;;;20.97;67.05
70370;BME280;57790;51.356;-2.906;2022-09-09T12:09:30;100975.66;;;20.82;67.91
70370;BME280;57790;51.356;-2.906;2022-09-09T12:12:34;100990.19;;;21.18;67.73
70370;BME280;57790;51.356;-2.906;2022-09-09T12:15:47;100983.84;;;21.30;66.86
70370;BME280;57790;51.356;-2.906;2022-09-09T12:18:48;100980.06;;;21.50;66.25
70370;BME280;57790;51.356;-2.906;2022-09-09T12:21:58;100984.34;;;21.69;65.91
70370;BME280;57790;51.356;-2.906;2022-09-09T12:25:21;100981.63;;;21.57;66.12
70370;BME280;57790;51.356;-2.906;2022-09-09T12:31:29;100992.81;;;21.06;67.00
70370;BME280;57790;51.356;-2.906;2022-09-09T12:34:39;100997.63;;;21.04;67.18
70370;BME280;57790;51.356;-2.906;2022-09-09T12:37:50;100999.56;;;21.15;66.40
70370;BME280;57790;51.356;-2.906;2022-09-09T12:40:57;100998.44;;;21.41;66.03
70370;BME280;57790;51.356;-2.906;2022-09-09T12:44:05;100992.00;;;21.42;66.04
70370;BME280;57790;51.356;-2.906;2022-09-09T12:47:06;100995.28;;;21.44;65.95
70370;BME280;57790;51.356;-2.906;2022-09-09T12:50:17;100995.28;;;21.26;66.45
70370;BME280;57790;51.356;-2.906;2022-09-09T12:53:27;100995.47;;;21.31;66.75
70370;BME280;57790;51.356;-2.906;2022-09-09T12:56:31;100995.88;;;21.76;65.03
70370;BME280;57790;51.356;-2.906;2022-09-09T12:59:38;100992.47;;;22.69;62.28
70370;BME280;57790;51.356;-2.906;2022-09-09T13:02:53;100994.97;;;22.59;62.30
70370;BME280;57790;51.356;-2.906;2022-09-09T13:05:58;100995.91;;;22.30;63.19
70370;BME280;57790;51.356;-2.906;2022-09-09T13:09:02;100991.69;;;22.34;63.52
70370;BME280;57790;51.356;-2.906;2022-09-09T13:12:03;100991.91;;;22.79;62.80
70370;BME280;57790;51.356;-2.906;2022-09-09T13:15:14;100990.56;;;23.17;62.22
70370;BME280;57790;51.356;-2.906;2022-09-09T13:18:30;100989.03;;;23.21;59.53
70370;BME280;57790;51.356;-2.906;2022-09-09T13:21:37;100987.09;;;23.73;58.40
70370;BME280;57790;51.356;-2.906;2022-09-09T13:24:39;100985.53;;;23.77;57.41
70370;BME280;57790;51.356;-2.906;2022-09-09T13:27:41;100997.44;;;23.76;58.51
70370;BME280;57790;51.356;-2.906;2022-09-09T13:30:43;100996.47;;;23.99;56.83
70370;BME280;57790;51.356;-2.906;2022-09-09T13:33:44;100998.00;;;23.78;57.89
70370;BME280;57790;51.356;-2.906;2022-09-09T13:36:47;101013.22;;;23.67;57.67
70370;BME280;57790;51.356;-2.906;2022-09-09T13:39:53;101017.69;;;23.33;57.26
70370;BME280;57790;51.356;-2.906;2022-09-09T13:42:56;101012.38;;;22.87;58.72
70370;BME280;57790;51.356;-2.906;2022-09-09T13:45:59;101015.78;;;22.59;60.07
70370;BME280;57790;51.356;-2.906;2022-09-09T13:52:12;101023.28;;;22.33;61.49
70370;BME280;57790;51.356;-2.906;2022-09-09T13:55:13;101019.97;;;22.19;61.45
70370;BME280;57790;51.356;-2.906;2022-09-09T13:58:16;101027.66;;;22.04;62.96
70370;BME280;57790;51.356;-2.906;2022-09-09T14:01:18;101018.09;;;22.55;62.62
70370;BME280;57790;51.356;-2.906;2022-09-09T14:04:19;101014.97;;;23.45;59.43
70370;BME280;57790;51.356;-2.906;2022-09-09T14:07:23;101019.34;;;23.34;59.26
70370;BME280;57790;51.356;-2.906;2022-09-09T14:10:23;101021.75;;;22.96;59.83
70370;BME280;57790;51.356;-2.906;2022-09-09T14:13:24;101016.84;;;22.93;60.28
70370;BME280;57790;51.356;-2.906;2022-09-09T14:16:24;101020.81;;;22.67;61.67
70370;BME280;57790;51.356;-2.906;2022-09-09T14:19:26;101027.63;;;22.34;61.94
70370;BME280;57790;51.356;-2.906;2022-09-09T14:22:27;101027.56;;;22.11;62.35
70370;BME280;57790;51.356;-2.906;2022-09-09T14:25:28;101035.34;;;21.89;63.27
70370;BME280;57790;51.356;-2.906;2022-09-09T14:28:29;101040.81;;;21.71;64.57
70370;BME280;57790;51.356;-2.906;2022-09-09T14:31:29;101047.47;;;21.68;65.43
70370;BME280;57790;51.356;-2.906;2022-09-09T14:34:30;101040.41;;;21.67;65.46
70370;BME280;57790;51.356;-2.906;2022-09-09T14:37:32;101036.66;;;21.56;65.56
70370;BME280;57790;51.356;-2.906;2022-09-09T14:40:35;101036.22;;;21.41;66.05
70370;BME280;57790;51.356;-2.906;2022-09-09T14:43:38;101042.44;;;21.42;65.89
70370;BME280;57790;51.356;-2.906;2022-09-09T14:46:38;101041.56;;;21.23;66.54
70370;BME280;57790;51.356;-2.906;2022-09-09T14:49:38;101034.63;;;21.15;67.23
70370;BME280;57790;51.356;-2.906;2022-09-09T14:52:39;101041.09;;;21.32;66.50
70370;BME280;57790;51.356;-2.906;2022-09-09T14:55:39;101030.81;;;22.66;64.42
70370;BME280;57790;51.356;-2.906;2022-09-09T14:58:40;101027.72;;;23.21;61.24
70370;BME280;57790;51.356;-2.906;2022-09-09T15:01:40;101023.72;;;23.64;60.16
70370;BME280;57790;51.356;-2.906;2022-09-09T15:04:41;101023.47;;;23.94;59.66
70370;BME280;57790;51.356;-2.906;2022-09-09T15:07:41;101021.75;;;23.88;59.50
70370;BME280;57790;51.356;-2.906;2022-09-09T15:10:42;101028.13;;;23.41;59.32
70370;BME280;57790;51.356;-2.906;2022-09-09T15:13:44;101021.75;;;22.96;61.35
70370;BME280;57790;51.356;-2.906;2022-09-09T15:16:45;101028.72;;;22.92;61.58
70370;BME280;57790;51.356;-2.906;2022-09-09T15:19:45;101027.53;;;22.64;61.56
70370;BME280;57790;51.356;-2.906;2022-09-09T15:22:46;101020.69;;;22.97;61.19
70370;BME280;57790;51.356;-2.906;2022-09-09T15:25:53;101022.41;;;23.66;60.05
70370;BME280;57790;51.356;-2.906;2022-09-09T15:28:54;101019.44;;;23.96;58.26
70370;BME280;57790;51.356;-2.906;2022-09-09T15:31:55;101025.84;;;23.90;58.00
70370;BME280;57790;51.356;-2.906;2022-09-09T15:34:55;101024.78;;;23.91;57.98
70370;BME280;57790;51.356;-2.906;2022-09-09T15:37:56;101027.59;;;24.13;57.84
70370;BME280;57790;51.356;-2.906;2022-09-09T15:40:57;101030.75;;;23.77;58.48
70370;BME280;57790;51.356;-2.906;2022-09-09T15:44:05;101039.00;;;23.70;57.99
70370;BME280;57790;51.356;-2.906;2022-09-09T15:47:05;101027.81;;;23.95;58.31
70370;BME280;57790;51.356;-2.906;2022-09-09T15:50:06;101036.88;;;23.72;59.11
70370;BME280;57790;51.356;-2.906;2022-09-09T15:53:07;101037.34;;;23.69;58.17
70370;BME280;57790;51.356;-2.906;2022-09-09T15:56:08;101042.69;;;23.64;58.22
70370;BME280;57790;51.356;-2.906;2022-09-09T15:59:09;101047.75;;;23.60;58.46
70370;BME280;57790;51.356;-2.906;2022-09-09T16:02:09;101033.78;;;23.40;59.40
70370;BME280;57790;51.356;-2.906;2022-09-09T16:05:09;101040.66;;;23.31;59.78
70370;BME280;57790;51.356;-2.906;2022-09-09T16:08:10;101050.28;;;23.27;60.08
70370;BME280;57790;51.356;-2.906;2022-09-09T16:11:17;101046.41;;;23.23;59.54
70370;BME280;57790;51.356;-2.906;2022-09-09T16:14:19;101054.69;;;23.16;59.03
70370;BME280;57790;51.356;-2.906;2022-09-09T16:17:20;101057.38;;;23.16;59.27
70370;BME280;57790;51.356;-2.906;2022-09-09T16:20:21;101047.41;;;23.05;59.05
70370;BME280;57790;51.356;-2.906;2022-09-09T16:23:21;101054.34;;;23.01;59.13
70370;BME280;57790;51.356;-2.906;2022-09-09T16:26:22;101043.41;;;22.96;59.18
70370;BME280;57790;51.356;-2.906;2022-09-09T16:29:24;101045.28;;;22.83;59.56
70370;BME280;57790;51.356;-2.906;2022-09-09T16:32:27;101035.88;;;22.74;59.70
70370;BME280;57790;51.356;-2.906;2022-09-09T16:35:28;101038.91;;;22.66;59.74
70370;BME280;57790;51.356;-2.906;2022-09-09T16:38:30;101037.25;;;22.53;59.54
70370;BME280;57790;51.356;-2.906;2022-09-09T16:41:31;101046.09;;;22.49;60.16
70370;BME280;57790;51.356;-2.906;2022-09-09T16:44:32;101049.72;;;22.43;60.40
70370;BME280;57790;51.356;-2.906;2022-09-09T16:47:33;101054.75;;;22.39;60.73
70370;BME280;57790;51.356;-2.906;2022-09-09T16:50:34;101055.69;;;22.33;60.56
70370;BME280;57790;51.356;-2.906;2022-09-09T16:53:34;101061.56;;;22.30;60.49
70370;BME280;57790;51.356;-2.906;2022-09-09T16:56:38;101073.28;;;22.24;60.99
70370;BME280;57790;51.356;-2.906;2022-09-09T16:59:41;101070.69;;;22.17;61.03
70370;BME280;57790;51.356;-2.906;2022-09-09T17:02:42;101077.63;;;22.13;61.57
70370;BME280;57790;51.356;-2.906;2022-09-09T17:05:43;101084.88;;;22.13;61.07
70370;BME280;57790;51.356;-2.906;2022-09-09T17:08:44;101089.25;;;22.14;62.21
70370;BME280;57790;51.356;-2.906;2022-09-09T17:11:45;101084.75;;;22.08;62.41
70370;BME280;57790;51.356;-2.906;2022-09-09T17:14:47;101095.03;;;21.99;62.74